sensor_id;sensor_type;location;lat;lon;timestamp;temperature;humidity
49042;DHT22;34859;51.608;11.462;2023-04-06T00:01:45;-0.40;99.90
49042;DHT22;34859;51.608;11.462;2023-04-06T00:04:12;-0.60;99.90
49042;DHT22;34859;51.608;11.462;2023-04-06T00:06:37;-0.50;99.90
49042;DHT22;34859;51.608;11.462;2023-04-06T00:09:03;-0.50;99.90
49042;DHT22;34859;51.608;11.462;2023-04-06T00:11:29;-0.40;99.90
49042;DHT22;34859;51.608;11.462;2023-04-06T00:13:54;-0.60;99.90
49042;DHT22;34859;51.608;11.462;2023-04-06T00:16:20;-0.70;99.90
49042;DHT22;34859;51.608;11.462;2023-04-06T00:18:46;-0.70;99.90
49042;DHT22;34859;51.608;11.462;2023-04-06T00:21:12;-0.60;99.90
49042;DHT22;34859;51.608;11.462;2023-04-06T00:23:38;-0.80;99.90
49042;DHT22;34859;51.608;11.462;2023-04-06T00:26:04;-0.90;99.90
49042;DHT22;34859;51.608;11.462;2023-04-06T00:28:29;-0.80;99.90
49042;DHT22;34859;51.608;11.462;2023-04-06T00:30:56;-0.90;99.90
49042;DHT22;34859;51.608;11.462;2023-04-06T00:33:22;-0.90;99.90
49042;DHT22;34859;51.608;11.462;2023-04-06T00:35:48;-0.90;99.90
49042;DHT22;34859;51.608;11.462;2023-04-06T00:38:14;-1.10;99.90
49042;DHT22;34859;51.608;11.462;2023-04-06T00:40:40;-1.20;99.90
49042;DHT22;34859;51.608;11.462;2023-04-06T00:43:07;-1.10;99.90
49042;DHT22;34859;51.608;11.462;2023-04-06T00:45:34;-1.10;99.90
49042;DHT22;34859;51.608;11.462;2023-04-06T00:48:00;-1.10;99.90
49042;DHT22;34859;51.608;11.462;2023-04-06T00:50:27;-1.10;99.90
49042;DHT22;34859;51.608;11.462;2023-04-06T00:52:54;-1.00;99.90
49042;DHT22;34859;51.608;11.462;2023-04-06T00:55:20;-1.00;99.90
49042;DHT22;34859;51.608;11.462;2023-04-06T00:57:48;-1.00;99.90
49042;DHT22;34859;51.608;11.462;2023-04-06T01:00:16;-1.00;99.90
49042;DHT22;34859;51.608;11.462;2023-04-06T01:02:42;-1.10;99.90
49042;DHT22;34859;51.608;11.462;2023-04-06T01:05:10;-1.10;99.90
49042;DHT22;34859;51.608;11.462;2023-04-06T01:07:37;-1.10;99.90
49042;DHT22;34859;51.608;11.462;2023-04-06T01:10:03;-1.10;99.90
49042;DHT22;34859;51.608;11.462;2023-04-06T01:12:29;-1.10;99.90
49042;DHT22;34859;51.608;11.462;2023-04-06T01:14:55;-1.10;99.90
49042;DHT22;34859;51.608;11.462;2023-04-06T01:17:20;-1.20;99.90
49042;DHT22;34859;51.608;11.462;2023-04-06T01:19:46;-1.20;99.90
49042;DHT22;34859;51.608;11.462;2023-04-06T01:22:17;-1.20;99.90
49042;DHT22;34859;51.608;11.462;2023-04-06T01:24:43;-1.20;99.90
49042;DHT22;34859;51.608;11.462;2023-04-06T01:27:09;-1.30;99.90
49042;DHT22;34859;51.608;11.462;2023-04-06T01:29:35;-1.30;99.90
49042;DHT22;34859;51.608;11.462;2023-04-06T01:32:00;-1.30;99.90
49042;DHT22;34859;51.608;11.462;2023-04-06T01:34:31;-1.20;99.90
49042;DHT22;34859;51.608;11.462;2023-04-06T01:36:57;-1.30;99.90
49042;DHT22;34859;51.608;11.462;2023-04-06T01:39:23;-1.30;99.90
49042;DHT22;34859;51.608;11.462;2023-04-06T01:41:48;-1.30;99.90
49042;DHT22;34859;51.608;11.462;2023-04-06T01:44:17;-1.30;99.90
49042;DHT22;34859;51.608;11.462;2023-04-06T01:46:44;-1.40;99.90
49042;DHT22;34859;51.608;11.462;2023-04-06T01:49:10;-1.40;99.90
49042;DHT22;34859;51.608;11.462;2023-04-06T01:51:36;-1.40;99.90
49042;DHT22;34859;51.608;11.462;2023-04-06T01:54:02;-1.40;99.90
49042;DHT22;34859;51.608;11.462;2023-04-06T01:56:28;-1.40;99.90
49042;DHT22;34859;51.608;11.462;2023-04-06T01:58:53;-1.30;99.90
49042;DHT22;34859;51.608;11.462;2023-04-06T02:01:19;-1.40;99.90
49042;DHT22;34859;51.608;11.462;2023-04-06T02:03:44;-1.40;99.90
49042;DHT22;34859;51.608;11.462;2023-04-06T02:06:10;-1.40;99.90
49042;DHT22;34859;51.608;11.462;2023-04-06T02:08:36;-1.40;99.90
49042;DHT22;34859;51.608;11.462;2023-04-06T02:11:02;-1.50;99.90
49042;DHT22;34859;51.608;11.462;2023-04-06T02:13:28;-1.50;99.90
49042;DHT22;34859;51.608;11.462;2023-04-06T02:15:53;-1.50;99.90
49042;DHT22;34859;51.608;11.462;2023-04-06T02:18:19;-1.50;99.90
49042;DHT22;34859;51.608;11.462;2023-04-06T02:20:44;-1.40;99.90
49042;DHT22;34859;51.608;11.462;2023-04-06T02:23:11;-1.50;99.90
49042;DHT22;34859;51.608;11.462;2023-04-06T02:25:36;-1.50;99.90
49042;DHT22;34859;51.608;11.462;2023-04-06T02:28:02;-1.50;99.90
49042;DHT22;34859;51.608;11.462;2023-04-06T02:30:28;-1.60;99.90
49042;DHT22;34859;51.608;11.462;2023-04-06T02:32:54;-1.60;99.90
49042;DHT22;34859;51.608;11.462;2023-04-06T02:35:20;-1.70;99.90
49042;DHT22;34859;51.608;11.462;2023-04-06T02:37:46;-1.70;99.90
49042;DHT22;34859;51.608;11.462;2023-04-06T02:40:13;-1.60;99.90
49042;DHT22;34859;51.608;11.462;2023-04-06T02:42:39;-1.60;99.90
49042;DHT22;34859;51.608;11.462;2023-04-06T02:45:05;-1.70;99.90
49042;DHT22;34859;51.608;11.462;2023-04-06T02:47:31;-1.60;99.90
49042;DHT22;34859;51.608;11.462;2023-04-06T02:49:56;-1.70;99.90
49042;DHT22;34859;51.608;11.462;2023-04-06T02:52:22;-1.70;99.90
49042;DHT22;34859;51.608;11.462;2023-04-06T02:54:48;-1.70;99.90
49042;DHT22;34859;51.608;11.462;2023-04-06T02:57:13;-1.70;99.90
49042;DHT22;34859;51.608;11.462;2023-04-06T02:59:39;-1.80;99.90
49042;DHT22;34859;51.608;11.462;2023-04-06T03:02:04;-1.70;99.90
49042;DHT22;34859;51.608;11.462;2023-04-06T03:04:30;-1.80;99.90
49042;DHT22;34859;51.608;11.462;2023-04-06T03:06:57;-1.80;99.90
49042;DHT22;34859;51.608;11.462;2023-04-06T03:09:22;-1.80;99.90
49042;DHT22;34859;51.608;11.462;2023-04-06T03:11:48;-1.80;99.90
49042;DHT22;34859;51.608;11.462;2023-04-06T03:14:13;-1.90;99.90
49042;DHT22;34859;51.608;11.462;2023-04-06T03:16:40;-1.90;99.90
49042;DHT22;34859;51.608;11.462;2023-04-06T03:19:07;-1.80;99.90
49042;DHT22;34859;51.608;11.462;2023-04-06T03:21:33;-1.90;99.90
49042;DHT22;34859;51.608;11.462;2023-04-06T03:23:58;-2.00;99.90
49042;DHT22;34859;51.608;11.462;2023-04-06T03:26:24;-2.00;99.90
49042;DHT22;34859;51.608;11.462;2023-04-06T03:28:50;-2.00;99.90
49042;DHT22;34859;51.608;11.462;2023-04-06T03:31:16;-1.90;99.90
49042;DHT22;34859;51.608;11.462;2023-04-06T03:33:45;-2.10;99.90
49042;DHT22;34859;51.608;11.462;2023-04-06T03:36:10;-2.10;99.90
49042;DHT22;34859;51.608;11.462;2023-04-06T03:38:37;-2.10;99.90
49042;DHT22;34859;51.608;11.462;2023-04-06T03:41:02;-2.10;99.90
49042;DHT22;34859;51.608;11.462;2023-04-06T03:43:28;-2.10;99.90
49042;DHT22;34859;51.608;11.462;2023-04-06T03:45:53;-2.10;99.90
49042;DHT22;34859;51.608;11.462;2023-04-06T03:48:19;-2.10;99.90
49042;DHT22;34859;51.608;11.462;2023-04-06T03:50:45;-2.10;99.90
49042;DHT22;34859;51.608;11.462;2023-04-06T03:53:10;-2.00;99.90
49042;DHT22;34859;51.608;11.462;2023-04-06T03:55:36;-2.00;99.90
49042;DHT22;34859;51.608;11.462;2023-04-06T03:58:02;-2.00;99.90
49042;DHT22;34859;51.608;11.462;2023-04-06T04:00:28;-2.00;99.90
49042;DHT22;34859;51.608;11.462;2023-04-06T04:02:53;-2.10;99.90
49042;DHT22;34859;51.608;11.462;2023-04-06T04:05:19;-2.10;99.90
49042;DHT22;34859;51.608;11.462;2023-04-06T04:07:50;-2.10;99.90
49042;DHT22;34859;51.608;11.462;2023-04-06T04:10:16;-2.10;99.90
49042;DHT22;34859;51.608;11.462;2023-04-06T04:13:02;-2.10;99.90
49042;DHT22;34859;51.608;11.462;2023-04-06T04:15:47;-2.10;99.90
49042;DHT22;34859;51.608;11.462;2023-04-06T04:18:33;-2.20;99.90
49042;DHT22;34859;51.608;11.462;2023-04-06T04:21:18;-2.20;99.90
49042;DHT22;34859;51.608;11.462;2023-04-06T04:23:44;-2.20;99.90
49042;DHT22;34859;51.608;11.462;2023-04-06T04:26:10;-2.20;99.90
49042;DHT22;34859;51.608;11.462;2023-04-06T04:28:36;-2.20;99.90
49042;DHT22;34859;51.608;11.462;2023-04-06T04:31:02;-2.10;99.90
49042;DHT22;34859;51.608;11.462;2023-04-06T04:33:28;-2.10;99.90
49042;DHT22;34859;51.608;11.462;2023-04-06T04:35:53;-2.10;99.90
49042;DHT22;34859;51.608;11.462;2023-04-06T04:38:19;-2.20;99.90
49042;DHT22;34859;51.608;11.462;2023-04-06T04:40:51;-2.30;99.90
49042;DHT22;34859;51.608;11.462;2023-04-06T04:43:17;-2.30;99.90
49042;DHT22;34859;51.608;11.462;2023-04-06T04:45:42;-2.30;99.90
49042;DHT22;34859;51.608;11.462;2023-04-06T04:48:08;-2.30;99.90
49042;DHT22;34859;51.608;11.462;2023-04-06T04:50:33;-2.30;99.90
49042;DHT22;34859;51.608;11.462;2023-04-06T04:52:59;-2.30;99.90
49042;DHT22;34859;51.608;11.462;2023-04-06T04:55:25;-2.30;99.90
49042;DHT22;34859;51.608;11.462;2023-04-06T04:57:51;-2.40;99.90
49042;DHT22;34859;51.608;11.462;2023-04-06T05:00:17;-2.40;99.90
49042;DHT22;34859;51.608;11.462;2023-04-06T05:02:42;-2.30;99.90
49042;DHT22;34859;51.608;11.462;2023-04-06T05:05:08;-2.40;99.90
49042;DHT22;34859;51.608;11.462;2023-04-06T05:07:53;-2.30;99.90
49042;DHT22;34859;51.608;11.462;2023-04-06T05:10:18;-2.40;99.90
49042;DHT22;34859;51.608;11.462;2023-04-06T05:12:44;-2.40;99.90
49042;DHT22;34859;51.608;11.462;2023-04-06T05:15:10;-2.40;99.90
49042;DHT22;34859;51.608;11.462;2023-04-06T05:17:37;-2.30;99.90
49042;DHT22;34859;51.608;11.462;2023-04-06T05:20:02;-2.20;99.90
49042;DHT22;34859;51.608;11.462;2023-04-06T05:22:28;-2.20;99.90
49042;DHT22;34859;51.608;11.462;2023-04-06T05:24:54;-2.20;99.90
49042;DHT22;34859;51.608;11.462;2023-04-06T05:27:19;-2.10;99.90
49042;DHT22;34859;51.608;11.462;2023-04-06T05:29:45;-2.00;99.90
49042;DHT22;34859;51.608;11.462;2023-04-06T05:32:11;-2.00;99.90
49042;DHT22;34859;51.608;11.462;2023-04-06T05:34:36;-2.00;99.90
49042;DHT22;34859;51.608;11.462;2023-04-06T05:37:02;-1.90;99.90
49042;DHT22;34859;51.608;11.462;2023-04-06T05:39:29;-1.80;99.90
49042;DHT22;34859;51.608;11.462;2023-04-06T05:41:56;-1.80;99.90
49042;DHT22;34859;51.608;11.462;2023-04-06T05:44:22;-1.70;99.90
49042;DHT22;34859;51.608;11.462;2023-04-06T05:46:48;-1.70;99.90
49042;DHT22;34859;51.608;11.462;2023-04-06T05:49:14;-1.60;99.90
49042;DHT22;34859;51.608;11.462;2023-04-06T05:51:39;-1.50;99.90
49042;DHT22;34859;51.608;11.462;2023-04-06T05:54:11;-1.40;99.90
49042;DHT22;34859;51.608;11.462;2023-04-06T05:56:36;-1.40;99.90
49042;DHT22;34859;51.608;11.462;2023-04-06T05:59:02;-1.40;99.90
49042;DHT22;34859;51.608;11.462;2023-04-06T06:01:28;-1.30;99.90
49042;DHT22;34859;51.608;11.462;2023-04-06T06:03:54;-1.20;99.90
49042;DHT22;34859;51.608;11.462;2023-04-06T06:06:19;-1.10;99.90
49042;DHT22;34859;51.608;11.462;2023-04-06T06:08:46;-1.10;99.90
49042;DHT22;34859;51.608;11.462;2023-04-06T06:11:12;-1.00;99.90
49042;DHT22;34859;51.608;11.462;2023-04-06T06:13:38;-0.90;99.90
49042;DHT22;34859;51.608;11.462;2023-04-06T06:16:03;-0.80;99.90
49042;DHT22;34859;51.608;11.462;2023-04-06T06:18:30;-0.70;99.90
49042;DHT22;34859;51.608;11.462;2023-04-06T06:20:57;-0.60;99.90
49042;DHT22;34859;51.608;11.462;2023-04-06T06:23:23;-0.50;99.90
49042;DHT22;34859;51.608;11.462;2023-04-06T06:25:50;-0.40;99.90
49042;DHT22;34859;51.608;11.462;2023-04-06T06:28:16;-0.30;99.90
49042;DHT22;34859;51.608;11.462;2023-04-06T06:30:43;-0.30;99.90
49042;DHT22;34859;51.608;11.462;2023-04-06T06:33:10;-0.20;99.90
49042;DHT22;34859;51.608;11.462;2023-04-06T06:35:36;-0.20;99.90
49042;DHT22;34859;51.608;11.462;2023-04-06T06:38:03;0.00;99.90
49042;DHT22;34859;51.608;11.462;2023-04-06T06:40:29;0.10;99.90
49042;DHT22;34859;51.608;11.462;2023-04-06T06:42:56;0.20;99.90
49042;DHT22;34859;51.608;11.462;2023-04-06T06:45:43;0.40;99.90
49042;DHT22;34859;51.608;11.462;2023-04-06T06:48:29;0.40;99.90
49042;DHT22;34859;51.608;11.462;2023-04-06T06:50:57;0.40;99.90
49042;DHT22;34859;51.608;11.462;2023-04-06T06:53:24;0.50;99.90
49042;DHT22;34859;51.608;11.462;2023-04-06T06:55:51;0.60;99.90
49042;DHT22;34859;51.608;11.462;2023-04-06T06:58:22;0.80;99.90
49042;DHT22;34859;51.608;11.462;2023-04-06T07:00:49;1.00;99.90
49042;DHT22;34859;51.608;11.462;2023-04-06T07:03:17;1.10;99.90
49042;DHT22;34859;51.608;11.462;2023-04-06T07:05:47;1.20;99.90
49042;DHT22;34859;51.608;11.462;2023-04-06T07:08:21;1.40;99.90
49042;DHT22;34859;51.608;11.462;2023-04-06T07:10:48;1.50;99.90
49042;DHT22;34859;51.608;11.462;2023-04-06T07:13:14;1.60;99.90
49042;DHT22;34859;51.608;11.462;2023-04-06T07:15:48;1.80;99.90
49042;DHT22;34859;51.608;11.462;2023-04-06T07:18:14;1.90;99.90
49042;DHT22;34859;51.608;11.462;2023-04-06T07:20:41;2.10;99.90
49042;DHT22;34859;51.608;11.462;2023-04-06T07:23:07;2.20;99.90
49042;DHT22;34859;51.608;11.462;2023-04-06T07:25:34;2.40;99.90
49042;DHT22;34859;51.608;11.462;2023-04-06T07:28:01;2.50;99.90
49042;DHT22;34859;51.608;11.462;2023-04-06T07:30:28;2.80;99.90
49042;DHT22;34859;51.608;11.462;2023-04-06T07:33:00;2.80;99.90
49042;DHT22;34859;51.608;11.462;2023-04-06T07:35:28;2.90;99.90
49042;DHT22;34859;51.608;11.462;2023-04-06T07:37:55;3.20;99.90
49042;DHT22;34859;51.608;11.462;2023-04-06T07:40:22;3.30;99.90
49042;DHT22;34859;51.608;11.462;2023-04-06T07:42:49;3.50;99.90
49042;DHT22;34859;51.608;11.462;2023-04-06T07:45:18;3.60;99.90
49042;DHT22;34859;51.608;11.462;2023-04-06T07:47:46;3.80;99.90
49042;DHT22;34859;51.608;11.462;2023-04-06T07:50:13;3.90;99.90
49042;DHT22;34859;51.608;11.462;2023-04-06T07:52:40;4.00;99.90
49042;DHT22;34859;51.608;11.462;2023-04-06T07:55:07;4.00;99.90
49042;DHT22;34859;51.608;11.462;2023-04-06T07:57:34;4.20;99.90
49042;DHT22;34859;51.608;11.462;2023-04-06T08:00:03;4.40;99.90
49042;DHT22;34859;51.608;11.462;2023-04-06T08:02:30;4.60;99.90
49042;DHT22;34859;51.608;11.462;2023-04-06T08:04:57;4.70;99.90
49042;DHT22;34859;51.608;11.462;2023-04-06T08:07:24;4.90;99.90
49042;DHT22;34859;51.608;11.462;2023-04-06T08:09:52;5.10;99.90
49042;DHT22;34859;51.608;11.462;2023-04-06T08:12:19;5.40;99.90
49042;DHT22;34859;51.608;11.462;2023-04-06T08:14:47;5.60;99.90
49042;DHT22;34859;51.608;11.462;2023-04-06T08:17:14;5.70;99.90
49042;DHT22;34859;51.608;11.462;2023-04-06T08:19:42;5.80;99.90
49042;DHT22;34859;51.608;11.462;2023-04-06T08:22:09;6.10;99.90
49042;DHT22;34859;51.608;11.462;2023-04-06T08:24:41;6.20;99.90
49042;DHT22;34859;51.608;11.462;2023-04-06T08:27:28;6.40;99.90
49042;DHT22;34859;51.608;11.462;2023-04-06T08:29:55;6.70;99.90
49042;DHT22;34859;51.608;11.462;2023-04-06T08:32:24;6.80;99.90
49042;DHT22;34859;51.608;11.462;2023-04-06T08:34:53;6.90;99.90
49042;DHT22;34859;51.608;11.462;2023-04-06T08:37:19;7.00;99.90
49042;DHT22;34859;51.608;11.462;2023-04-06T08:39:49;7.00;99.90
49042;DHT22;34859;51.608;11.462;2023-04-06T08:42:18;7.10;99.90
49042;DHT22;34859;51.608;11.462;2023-04-06T08:44:48;7.20;99.90
49042;DHT22;34859;51.608;11.462;2023-04-06T08:47:15;7.20;99.90
49042;DHT22;34859;51.608;11.462;2023-04-06T08:49:42;7.30;99.90
49042;DHT22;34859;51.608;11.462;2023-04-06T08:52:09;7.50;99.90
49042;DHT22;34859;51.608;11.462;2023-04-06T08:54:37;7.60;99.90
49042;DHT22;34859;51.608;11.462;2023-04-06T08:57:04;7.70;99.90
49042;DHT22;34859;51.608;11.462;2023-04-06T08:59:31;7.80;99.90
49042;DHT22;34859;51.608;11.462;2023-04-06T09:01:57;7.90;99.90
49042;DHT22;34859;51.608;11.462;2023-04-06T18:20:02;6.40;99.90
49042;DHT22;34859;51.608;11.462;2023-04-06T18:22:30;6.40;99.90
49042;DHT22;34859;51.608;11.462;2023-04-06T18:25:16;6.30;99.90
49042;DHT22;34859;51.608;11.462;2023-04-06T18:27:41;6.10;99.90
49042;DHT22;34859;51.608;11.462;2023-04-06T18:30:07;6.00;99.90
49042;DHT22;34859;51.608;11.462;2023-04-06T18:32:33;6.00;99.90
49042;DHT22;34859;51.608;11.462;2023-04-06T18:34:58;6.10;99.90
49042;DHT22;34859;51.608;11.462;2023-04-06T18:37:24;6.00;99.90
49042;DHT22;34859;51.608;11.462;2023-04-06T18:39:50;5.80;99.90
49042;DHT22;34859;51.608;11.462;2023-04-06T18:42:17;5.70;99.90
49042;DHT22;34859;51.608;11.462;2023-04-06T18:44:44;5.50;99.90
49042;DHT22;34859;51.608;11.462;2023-04-06T18:47:09;5.40;99.90
49042;DHT22;34859;51.608;11.462;2023-04-06T18:49:36;5.30;99.90
49042;DHT22;34859;51.608;11.462;2023-04-06T18:52:05;5.30;99.90
49042;DHT22;34859;51.608;11.462;2023-04-06T18:54:31;5.20;99.90
49042;DHT22;34859;51.608;11.462;2023-04-06T18:56:56;5.20;99.90
49042;DHT22;34859;51.608;11.462;2023-04-06T18:59:22;5.20;99.90
49042;DHT22;34859;51.608;11.462;2023-04-06T19:01:48;5.20;99.90
49042;DHT22;34859;51.608;11.462;2023-04-06T19:04:19;5.20;99.90
49042;DHT22;34859;51.608;11.462;2023-04-06T19:06:45;5.20;99.90
49042;DHT22;34859;51.608;11.462;2023-04-06T19:09:11;5.20;99.90
49042;DHT22;34859;51.608;11.462;2023-04-06T19:11:37;5.10;99.90
49042;DHT22;34859;51.608;11.462;2023-04-06T19:14:03;5.20;99.90
49042;DHT22;34859;51.608;11.462;2023-04-06T19:16:29;5.20;99.90
49042;DHT22;34859;51.608;11.462;2023-04-06T19:18:55;5.10;99.90
49042;DHT22;34859;51.608;11.462;2023-04-06T19:21:22;5.00;99.90
49042;DHT22;34859;51.608;11.462;2023-04-06T19:23:48;4.80;99.90
49042;DHT22;34859;51.608;11.462;2023-04-06T19:26:15;4.80;99.90
49042;DHT22;34859;51.608;11.462;2023-04-06T19:28:41;4.70;99.90
49042;DHT22;34859;51.608;11.462;2023-04-06T19:31:07;4.70;99.90
49042;DHT22;34859;51.608;11.462;2023-04-06T19:33:33;4.60;99.90
49042;DHT22;34859;51.608;11.462;2023-04-06T19:36:00;4.40;99.90
49042;DHT22;34859;51.608;11.462;2023-04-06T19:38:28;4.40;99.90
49042;DHT22;34859;51.608;11.462;2023-04-06T19:40:54;4.30;99.90
49042;DHT22;34859;51.608;11.462;2023-04-06T19:43:20;4.30;99.90
49042;DHT22;34859;51.608;11.462;2023-04-06T19:45:47;4.30;99.90
49042;DHT22;34859;51.608;11.462;2023-04-06T19:48:12;4.20;99.90
49042;DHT22;34859;51.608;11.462;2023-04-06T19:50:38;4.30;99.90
49042;DHT22;34859;51.608;11.462;2023-04-06T19:53:03;4.30;99.90
49042;DHT22;34859;51.608;11.462;2023-04-06T19:55:29;4.40;99.90
49042;DHT22;34859;51.608;11.462;2023-04-06T19:57:55;4.30;99.90
49042;DHT22;34859;51.608;11.462;2023-04-06T20:00:21;4.20;99.90
49042;DHT22;34859;51.608;11.462;2023-04-06T20:03:07;4.30;99.90
49042;DHT22;34859;51.608;11.462;2023-04-06T20:05:53;4.40;99.90
49042;DHT22;34859;51.608;11.462;2023-04-06T20:08:39;4.30;99.90
49042;DHT22;34859;51.608;11.462;2023-04-06T20:11:24;4.10;99.90
49042;DHT22;34859;51.608;11.462;2023-04-06T20:14:10;3.90;99.90
49042;DHT22;34859;51.608;11.462;2023-04-06T20:16:37;3.80;99.90
49042;DHT22;34859;51.608;11.462;2023-04-06T20:19:03;3.80;99.90
49042;DHT22;34859;51.608;11.462;2023-04-06T20:21:29;3.90;99.90
49042;DHT22;34859;51.608;11.462;2023-04-06T20:23:56;3.90;99.90
49042;DHT22;34859;51.608;11.462;2023-04-06T20:26:22;4.00;99.90
49042;DHT22;34859;51.608;11.462;2023-04-06T20:28:48;3.90;99.90
49042;DHT22;34859;51.608;11.462;2023-04-06T20:31:13;3.70;99.90
49042;DHT22;34859;51.608;11.462;2023-04-06T20:33:39;3.80;99.90
49042;DHT22;34859;51.608;11.462;2023-04-06T20:36:05;3.90;99.90
49042;DHT22;34859;51.608;11.462;2023-04-06T20:38:30;3.90;99.90
49042;DHT22;34859;51.608;11.462;2023-04-06T20:40:56;3.80;99.90
49042;DHT22;34859;51.608;11.462;2023-04-06T20:43:24;3.80;99.90
49042;DHT22;34859;51.608;11.462;2023-04-06T20:45:55;3.50;99.90
49042;DHT22;34859;51.608;11.462;2023-04-06T20:48:22;3.30;99.90
49042;DHT22;34859;51.608;11.462;2023-04-06T20:50:49;3.20;99.90
49042;DHT22;34859;51.608;11.462;2023-04-06T20:53:17;3.30;99.90
49042;DHT22;34859;51.608;11.462;2023-04-06T20:55:43;3.40;99.90
49042;DHT22;34859;51.608;11.462;2023-04-06T20:58:08;3.30;99.90
49042;DHT22;34859;51.608;11.462;2023-04-06T21:00:34;3.30;99.90
49042;DHT22;34859;51.608;11.462;2023-04-06T21:03:01;3.40;99.90
49042;DHT22;34859;51.608;11.462;2023-04-06T21:05:29;3.40;99.90
49042;DHT22;34859;51.608;11.462;2023-04-06T21:07:54;3.30;99.90
49042;DHT22;34859;51.608;11.462;2023-04-06T21:10:20;3.20;99.90
49042;DHT22;34859;51.608;11.462;2023-04-06T21:12:48;3.00;99.90
49042;DHT22;34859;51.608;11.462;2023-04-06T21:15:13;2.90;99.90
49042;DHT22;34859;51.608;11.462;2023-04-06T21:17:39;2.80;99.90
49042;DHT22;34859;51.608;11.462;2023-04-06T21:20:04;2.60;99.90
49042;DHT22;34859;51.608;11.462;2023-04-06T21:22:31;2.60;99.90
49042;DHT22;34859;51.608;11.462;2023-04-06T21:24:57;2.40;99.90
49042;DHT22;34859;51.608;11.462;2023-04-06T21:27:22;2.30;99.90
49042;DHT22;34859;51.608;11.462;2023-04-06T21:29:49;2.30;99.90
49042;DHT22;34859;51.608;11.462;2023-04-06T21:32:14;2.10;99.90
49042;DHT22;34859;51.608;11.462;2023-04-06T21:34:40;2.00;99.90
49042;DHT22;34859;51.608;11.462;2023-04-06T21:37:07;2.00;99.90
49042;DHT22;34859;51.608;11.462;2023-04-06T21:39:35;2.00;99.90
49042;DHT22;34859;51.608;11.462;2023-04-06T21:42:00;2.10;99.90
49042;DHT22;34859;51.608;11.462;2023-04-06T21:44:27;2.10;99.90
49042;DHT22;34859;51.608;11.462;2023-04-06T21:46:53;2.00;99.90
49042;DHT22;34859;51.608;11.462;2023-04-06T21:49:18;1.90;99.90
49042;DHT22;34859;51.608;11.462;2023-04-06T21:51:44;2.10;99.90
49042;DHT22;34859;51.608;11.462;2023-04-06T21:54:10;2.00;99.90
49042;DHT22;34859;51.608;11.462;2023-04-06T21:56:37;2.00;99.90
49042;DHT22;34859;51.608;11.462;2023-04-06T21:59:02;1.90;99.90
49042;DHT22;34859;51.608;11.462;2023-04-06T22:01:28;1.80;99.90
49042;DHT22;34859;51.608;11.462;2023-04-06T22:03:53;1.60;99.90
49042;DHT22;34859;51.608;11.462;2023-04-06T22:06:19;1.60;99.90
49042;DHT22;34859;51.608;11.462;2023-04-06T22:08:46;1.60;99.90
49042;DHT22;34859;51.608;11.462;2023-04-06T22:11:13;1.80;99.90
49042;DHT22;34859;51.608;11.462;2023-04-06T22:13:40;1.60;99.90
49042;DHT22;34859;51.608;11.462;2023-04-06T22:16:06;1.50;99.90
49042;DHT22;34859;51.608;11.462;2023-04-06T22:18:32;1.40;99.90
49042;DHT22;34859;51.608;11.462;2023-04-06T22:20:59;1.30;99.90
49042;DHT22;34859;51.608;11.462;2023-04-06T22:23:25;1.10;99.90
49042;DHT22;34859;51.608;11.462;2023-04-06T22:25:51;1.20;99.90
49042;DHT22;34859;51.608;11.462;2023-04-06T22:28:17;1.30;99.90
49042;DHT22;34859;51.608;11.462;2023-04-06T22:30:42;1.40;99.90
49042;DHT22;34859;51.608;11.462;2023-04-06T22:33:08;1.40;99.90
49042;DHT22;34859;51.608;11.462;2023-04-06T22:35:33;1.30;99.90
49042;DHT22;34859;51.608;11.462;2023-04-06T22:38:00;1.30;99.90
49042;DHT22;34859;51.608;11.462;2023-04-06T22:40:27;1.30;99.90
49042;DHT22;34859;51.608;11.462;2023-04-06T22:42:53;1.10;99.90
49042;DHT22;34859;51.608;11.462;2023-04-06T22:45:18;1.10;99.90
49042;DHT22;34859;51.608;11.462;2023-04-06T22:47:44;1.00;99.90
49042;DHT22;34859;51.608;11.462;2023-04-06T22:50:10;0.90;99.90
49042;DHT22;34859;51.608;11.462;2023-04-06T22:52:39;1.00;99.90
49042;DHT22;34859;51.608;11.462;2023-04-06T22:55:04;0.90;99.90
49042;DHT22;34859;51.608;11.462;2023-04-06T22:57:30;0.80;99.90
49042;DHT22;34859;51.608;11.462;2023-04-06T22:59:57;0.70;99.90
49042;DHT22;34859;51.608;11.462;2023-04-06T23:02:23;0.50;99.90
49042;DHT22;34859;51.608;11.462;2023-04-06T23:04:48;0.60;99.90
49042;DHT22;34859;51.608;11.462;2023-04-06T23:07:14;0.50;99.90
49042;DHT22;34859;51.608;11.462;2023-04-06T23:09:40;0.40;99.90
49042;DHT22;34859;51.608;11.462;2023-04-06T23:12:07;0.50;99.90
49042;DHT22;34859;51.608;11.462;2023-04-06T23:14:33;0.60;99.90
49042;DHT22;34859;51.608;11.462;2023-04-06T23:16:58;0.50;99.90
49042;DHT22;34859;51.608;11.462;2023-04-06T23:19:24;0.50;99.90
49042;DHT22;34859;51.608;11.462;2023-04-06T23:21:49;0.50;99.90
49042;DHT22;34859;51.608;11.462;2023-04-06T23:24:16;0.50;99.90
49042;DHT22;34859;51.608;11.462;2023-04-06T23:26:42;0.60;99.90
49042;DHT22;34859;51.608;11.462;2023-04-06T23:29:08;0.60;99.90
49042;DHT22;34859;51.608;11.462;2023-04-06T23:31:36;0.60;99.90
49042;DHT22;34859;51.608;11.462;2023-04-06T23:34:02;0.70;99.90
49042;DHT22;34859;51.608;11.462;2023-04-06T23:36:27;0.80;99.90
49042;DHT22;34859;51.608;11.462;2023-04-06T23:38:53;0.80;99.90
49042;DHT22;34859;51.608;11.462;2023-04-06T23:41:19;0.80;99.90
49042;DHT22;34859;51.608;11.462;2023-04-06T23:43:44;0.70;99.90
49042;DHT22;34859;51.608;11.462;2023-04-06T23:46:14;0.70;99.90
49042;DHT22;34859;51.608;11.462;2023-04-06T23:48:39;0.60;99.90
49042;DHT22;34859;51.608;11.462;2023-04-06T23:51:07;0.70;99.90
49042;DHT22;34859;51.608;11.462;2023-04-06T23:53:32;0.50;99.90
49042;DHT22;34859;51.608;11.462;2023-04-06T23:55:58;0.50;99.90
49042;DHT22;34859;51.608;11.462;2023-04-06T23:58:24;0.50;99.90
